createdAt,value
2018-02-09T00:00:46.486Z,41.67
2018-02-09T00:03:14.901Z,43.47
2018-02-09T00:05:42.581Z,40.20
2018-02-09T00:08:10.042Z,41.22
2018-02-09T00:10:37.549Z,44.60
2018-02-09T00:13:05.000Z,41.92
2018-02-09T00:15:35.842Z,42.60
2018-02-09T00:18:03.424Z,37.67
2018-02-09T00:20:31.122Z,42.77
2018-02-09T00:22:58.871Z,41.07
2018-02-09T00:25:26.389Z,40.90
2018-02-09T00:27:53.889Z,41.90
2018-02-09T00:30:21.321Z,41.37
2018-02-09T00:32:48.944Z,44.05
2018-02-09T00:35:16.413Z,40.27
2018-02-09T00:37:43.903Z,39.67
2018-02-09T00:40:13.065Z,42.83
2018-02-09T00:42:40.537Z,43.43
2018-02-09T00:45:07.989Z,42.87
2018-02-09T00:47:35.456Z,40.77
2018-02-09T00:50:02.945Z,41.30
2018-02-09T00:52:30.454Z,41.92
2018-02-09T00:54:58.192Z,41.93
2018-02-09T00:57:26.932Z,41.67
2018-02-09T00:59:54.515Z,41.60
2018-02-09T01:02:22.723Z,44.67
2018-02-09T01:04:51.414Z,41.25
2018-02-09T01:07:18.875Z,45.50
2018-02-09T01:09:47.893Z,44.20
2018-02-09T01:12:15.620Z,43.10
2018-02-09T01:14:43.109Z,46.80
2018-02-09T01:17:10.587Z,40.67
2018-02-09T01:19:38.250Z,40.75
2018-02-09T01:22:05.728Z,44.10
2018-02-09T01:24:33.185Z,42.97
2018-02-09T01:27:00.649Z,42.40
2018-02-09T01:29:33.371Z,45.37
2018-02-09T01:32:02.352Z,42.83
2018-02-09T01:34:30.067Z,43.57
2018-02-09T01:36:57.528Z,43.87
2018-02-09T01:39:24.991Z,44.38
2018-02-09T01:41:52.469Z,45.03
2018-02-09T01:44:19.939Z,40.97
2018-02-09T01:46:47.400Z,42.97
2018-02-09T01:49:14.876Z,45.08
2018-02-09T01:51:42.375Z,46.90
2018-02-09T01:54:09.819Z,45.65
2018-02-09T01:56:38.162Z,41.45
2018-02-09T01:59:13.516Z,44.53
2018-02-09T02:01:40.984Z,42.50
2018-02-09T02:04:08.488Z,44.10
2018-02-09T02:06:35.980Z,43.17
2018-02-09T02:09:03.466Z,41.93
2018-02-09T02:11:30.964Z,39.00
2018-02-09T02:13:58.425Z,43.08
2018-02-09T02:16:26.110Z,46.93
2018-02-09T02:18:53.561Z,48.13
2018-02-09T02:21:21.008Z,45.10
2018-02-09T02:23:48.496Z,44.00
2018-02-09T02:26:17.454Z,43.38
2018-02-09T02:28:44.918Z,46.45
2018-02-09T02:31:12.406Z,43.40
2018-02-09T02:33:39.876Z,46.27
2018-02-09T02:36:07.337Z,40.65
2018-02-09T02:38:35.735Z,41.53
2018-02-09T02:41:03.180Z,48.00
2018-02-09T02:43:30.651Z,47.93
2018-02-09T02:45:58.116Z,43.83
2018-02-09T02:48:25.608Z,46.70
2018-02-09T02:50:53.057Z,47.27
2018-02-09T02:53:20.529Z,42.53
2018-02-09T02:55:48.004Z,47.40
2018-02-09T02:58:16.224Z,44.15
2018-02-09T03:00:43.940Z,47.40
2018-02-09T03:03:11.396Z,45.37
2018-02-09T03:05:38.859Z,44.65
2018-02-09T03:08:06.357Z,44.28
2018-02-09T03:10:33.856Z,42.50
2018-02-09T03:13:01.501Z,43.87
2018-02-09T03:15:33.078Z,42.97
2018-02-09T03:18:00.557Z,45.07
2018-02-09T03:20:28.033Z,42.63
2018-02-09T03:22:55.483Z,40.55
2018-02-09T03:25:22.961Z,46.40
2018-02-09T03:27:50.533Z,44.10
2018-02-09T03:30:18.059Z,44.63
2018-02-09T03:32:45.536Z,41.13
2018-02-09T03:35:13.012Z,43.92
2018-02-09T03:37:43.145Z,45.58
2018-02-09T03:40:11.567Z,43.90
2018-02-09T03:42:39.137Z,41.15
2018-02-09T03:45:06.606Z,44.10
2018-02-09T03:47:34.190Z,43.40
2018-02-09T03:50:01.674Z,41.20
2018-02-09T03:52:30.818Z,43.87
2018-02-09T03:54:58.508Z,45.05
2018-02-09T03:57:25.963Z,42.30
2018-02-09T03:59:53.424Z,45.30
2018-02-09T04:02:20.913Z,45.58
2018-02-09T04:04:48.408Z,45.97
2018-02-09T04:07:15.885Z,40.30
2018-02-09T04:09:43.416Z,41.13
2018-02-09T04:12:12.521Z,42.92
2018-02-09T04:14:40.315Z,43.38
2018-02-09T04:17:12.385Z,45.47
2018-02-09T04:19:39.824Z,44.23
2018-02-09T04:22:07.597Z,42.47
2018-02-09T04:24:35.153Z,42.47
2018-02-09T04:27:02.732Z,45.37
2018-02-09T04:29:30.257Z,43.03
2018-02-09T04:31:57.781Z,43.00
2018-02-09T04:34:25.268Z,44.70
2018-02-09T04:36:54.157Z,42.58
2018-02-09T04:39:21.804Z,42.73
2018-02-09T04:41:49.272Z,44.47
2018-02-09T04:44:16.745Z,41.13
2018-02-09T04:46:44.219Z,43.60
2018-02-09T04:49:16.648Z,40.03
2018-02-09T04:51:44.144Z,42.33
2018-02-09T04:54:11.589Z,41.73
2018-02-09T04:56:39.044Z,43.17
2018-02-09T04:59:07.466Z,41.42
2018-02-09T05:01:34.932Z,42.30
2018-02-09T05:04:02.427Z,43.20
2018-02-09T05:06:29.976Z,42.57
2018-02-09T05:08:57.438Z,43.28
2018-02-09T05:11:24.916Z,45.15
2018-02-09T05:13:52.369Z,42.40
2018-02-09T05:16:19.853Z,45.37
2018-02-09T05:18:47.666Z,43.28
2018-02-09T05:21:17.176Z,48.12
2018-02-09T05:23:44.681Z,42.13
2018-02-09T05:26:12.130Z,42.77
2018-02-09T05:28:40.409Z,42.60
2018-02-09T05:31:07.993Z,43.37
2018-02-09T05:33:35.467Z,44.83
2018-02-09T05:36:02.908Z,45.22
2018-02-09T05:38:30.425Z,42.75
2018-02-09T05:40:57.880Z,42.87
2018-02-09T05:43:25.360Z,45.10
2018-02-09T05:45:52.895Z,43.95
2018-02-09T05:48:27.724Z,41.37
2018-02-09T05:50:55.177Z,45.97
2018-02-09T05:53:22.678Z,46.60
2018-02-09T05:55:50.313Z,40.93
2018-02-09T05:58:17.793Z,44.60
2018-02-09T06:00:45.262Z,42.60
2018-02-09T06:03:12.898Z,43.10
2018-02-09T06:05:40.377Z,46.57
2018-02-09T06:08:10.044Z,42.10
2018-02-09T06:10:39.218Z,42.13
2018-02-09T06:13:06.804Z,46.57
2018-02-09T06:15:34.478Z,45.50
2018-02-09T06:18:01.951Z,42.63
2018-02-09T06:20:30.396Z,43.60
2018-02-09T06:22:58.033Z,45.00
2018-02-09T06:25:25.499Z,42.03
2018-02-09T06:27:52.946Z,45.00
2018-02-09T06:30:20.592Z,42.90
2018-02-09T06:32:48.188Z,45.83
2018-02-09T06:35:19.801Z,42.73
2018-02-09T06:37:47.484Z,44.34
2018-02-09T06:40:14.983Z,45.67
2018-02-09T06:42:42.626Z,43.27
2018-02-09T06:45:10.092Z,44.30
2018-02-09T06:47:37.649Z,44.80
2018-02-09T06:50:13.408Z,41.83
2018-02-09T06:52:40.885Z,42.27
2018-02-09T06:55:08.325Z,42.50
2018-02-09T06:57:35.784Z,42.67
2018-02-09T07:00:03.256Z,42.47
2018-02-09T07:02:30.771Z,42.03
2018-02-09T07:04:58.240Z,44.60
2018-02-09T07:07:26.625Z,42.83
2018-02-09T07:09:54.089Z,45.40
2018-02-09T07:12:21.597Z,40.53
2018-02-09T07:14:49.076Z,44.72
2018-02-09T07:17:16.529Z,43.47
2018-02-09T07:19:47.543Z,45.37
2018-02-09T07:22:16.689Z,41.63
2018-02-09T07:24:44.244Z,43.10
2018-02-09T07:27:11.702Z,44.77
2018-02-09T07:29:39.204Z,39.65
2018-02-09T07:32:06.957Z,42.83
2018-02-09T07:34:34.944Z,44.83
2018-02-09T07:37:02.412Z,43.05
2018-02-09T07:39:29.897Z,44.53
2018-02-09T07:41:57.363Z,44.63
2018-02-09T07:44:24.858Z,43.33
2018-02-09T07:46:52.298Z,42.00
2018-02-09T07:49:19.809Z,43.63
2018-02-09T07:51:47.408Z,45.00
2018-02-09T07:54:14.868Z,39.83
2018-02-09T07:56:42.324Z,42.88
2018-02-09T07:59:09.877Z,43.40
2018-02-09T08:01:38.857Z,43.75
2018-02-09T08:04:06.325Z,44.67
2018-02-09T08:06:37.700Z,45.13
2018-02-09T08:09:05.150Z,44.77
2018-02-09T08:11:33.109Z,44.47
2018-02-09T08:14:00.585Z,43.70
2018-02-09T08:16:28.112Z,45.88
2018-02-09T08:18:55.585Z,46.95
2018-02-09T08:21:23.082Z,43.37
2018-02-09T08:23:50.664Z,46.70
2018-02-09T08:26:18.140Z,49.60
2018-02-09T08:28:45.599Z,46.27
2018-02-09T08:31:13.086Z,44.33
2018-02-09T08:33:41.256Z,45.15
2018-02-09T08:36:12.792Z,45.30
2018-02-09T08:38:40.244Z,44.50
2018-02-09T08:41:07.727Z,42.70
2018-02-09T08:43:35.442Z,45.80
2018-02-09T08:46:02.879Z,46.10
2018-02-09T08:48:31.916Z,49.18
2018-02-09T08:50:59.389Z,48.80
2018-02-09T08:53:26.881Z,48.75
2018-02-09T08:55:54.363Z,47.13
2018-02-09T08:58:21.849Z,44.50
2018-02-09T09:00:50.737Z,47.86
2018-02-09T09:03:18.205Z,40.60
2018-02-09T09:05:45.680Z,41.47
2018-02-09T09:08:13.465Z,38.13
2018-02-09T09:10:42.100Z,39.07
2018-02-09T09:13:09.567Z,42.70
2018-02-09T09:15:37.069Z,40.10
2018-02-09T09:18:04.519Z,41.30
2018-02-09T09:20:31.980Z,30.88
2018-02-09T09:22:59.644Z,31.73
2018-02-09T09:25:27.139Z,33.57
2018-02-09T09:27:54.610Z,32.90
2018-02-09T09:30:22.988Z,34.90
2018-02-09T09:32:50.445Z,32.28
2018-02-09T09:35:17.900Z,33.43
2018-02-09T09:37:49.684Z,31.70
2018-02-09T09:40:18.088Z,32.40
2018-02-09T09:42:45.575Z,32.80
2018-02-09T09:45:13.176Z,33.83
2018-02-09T09:47:40.940Z,34.40
2018-02-09T09:50:08.426Z,32.50
2018-02-09T09:52:39.686Z,35.30
2018-02-09T09:55:07.596Z,38.63
2018-02-09T09:57:35.053Z,35.97
2018-02-09T10:00:03.275Z,35.57
2018-02-09T10:02:45.501Z,37.40
2018-02-09T10:05:12.968Z,36.27
2018-02-09T10:07:44.956Z,37.53
2018-02-09T10:10:12.582Z,35.87
2018-02-09T10:12:40.064Z,34.10
2018-02-09T10:15:07.628Z,39.10
2018-02-09T10:17:35.090Z,37.10
2018-02-09T10:20:02.556Z,36.87
2018-02-09T10:22:29.996Z,31.65
2018-02-09T10:24:58.392Z,36.40
2018-02-09T10:27:25.838Z,34.03
2018-02-09T10:29:53.325Z,30.83
2018-02-09T10:32:20.837Z,30.37
2018-02-09T10:34:49.041Z,32.60
2018-02-09T10:37:18.955Z,33.40
2018-02-09T10:39:46.396Z,32.87
2018-02-09T10:42:14.260Z,32.20
2018-02-09T10:44:43.236Z,32.17
2018-02-09T10:47:10.693Z,32.43
2018-02-09T10:49:38.498Z,32.27
2018-02-09T10:52:05.936Z,30.10
2018-02-09T10:54:36.464Z,28.30
2018-02-09T10:57:03.913Z,31.00
2018-02-09T10:59:32.074Z,31.60
2018-02-09T11:01:59.556Z,27.75
2018-02-09T11:04:27.060Z,31.60
2018-02-09T11:06:54.545Z,30.12
2018-02-09T11:09:27.687Z,30.20
2018-02-09T11:12:01.717Z,27.02
2018-02-09T11:14:30.235Z,28.27
2018-02-09T11:16:57.940Z,26.45
2018-02-09T11:19:25.433Z,26.87
2018-02-09T11:21:52.945Z,27.62
2018-02-09T11:24:20.423Z,26.37
2018-02-09T11:26:47.934Z,26.60
2018-02-09T11:29:15.411Z,28.63
2018-02-09T11:31:42.884Z,28.62
2018-02-09T11:34:12.029Z,24.33
2018-02-09T11:36:39.506Z,26.80
2018-02-09T11:39:06.962Z,29.52
2018-02-09T11:41:36.222Z,27.03
2018-02-09T11:44:03.749Z,25.88
2018-02-09T11:46:31.209Z,26.57
2018-02-09T11:48:58.652Z,25.63
2018-02-09T11:51:26.265Z,25.87
2018-02-09T11:53:58.110Z,25.30
2018-02-09T11:56:25.638Z,25.93
2018-02-09T11:58:53.179Z,25.53
2018-02-09T12:01:21.211Z,26.07
2018-02-09T12:03:48.671Z,26.10
2018-02-09T12:06:16.228Z,24.50
2018-02-09T12:08:43.670Z,26.80
2018-02-09T12:11:11.172Z,25.40
2018-02-09T12:13:39.429Z,24.67
2018-02-09T12:16:06.880Z,25.77
2018-02-09T12:18:34.374Z,24.43
2018-02-09T12:21:01.857Z,28.20
2018-02-09T12:23:30.076Z,23.67
2018-02-09T12:25:58.478Z,27.20
2018-02-09T12:28:25.969Z,25.08
2018-02-09T12:30:53.411Z,25.03
2018-02-09T12:33:20.965Z,24.30
2018-02-09T12:35:48.485Z,23.43
2018-02-09T12:38:16.048Z,22.67
2018-02-09T12:40:43.540Z,24.37
2018-02-09T12:43:11.020Z,22.03
2018-02-09T12:45:38.563Z,23.65
2018-02-09T12:48:07.145Z,22.93
2018-02-09T12:50:34.592Z,23.70
2018-02-09T12:53:02.068Z,23.70
2018-02-09T12:55:29.512Z,26.27
2018-02-09T12:57:56.984Z,25.70
2018-02-09T13:00:24.432Z,23.25
2018-02-09T13:02:51.889Z,23.33
2018-02-09T13:05:19.349Z,23.73
2018-02-09T13:07:46.812Z,23.12
2018-02-09T13:10:18.849Z,21.48
2018-02-09T13:12:59.712Z,20.73
2018-02-09T13:15:27.600Z,22.37
2018-02-09T13:17:55.067Z,21.15
2018-02-09T13:20:22.534Z,23.33
2018-02-09T13:25:53.176Z,24.23
2018-02-09T13:31:22.925Z,25.55
2018-02-09T13:33:50.669Z,23.73
2018-02-09T13:36:18.125Z,23.90
2018-02-09T13:38:46.346Z,22.27
2018-02-09T13:41:17.079Z,24.05
2018-02-09T13:43:44.510Z,22.13
2018-02-09T13:46:13.581Z,22.90
2018-02-09T13:48:42.111Z,23.20
2018-02-09T13:51:09.548Z,22.00
2018-02-09T13:53:37.708Z,22.92
2018-02-09T13:56:08.941Z,25.55
2018-02-09T13:58:36.452Z,23.67
2018-02-09T14:01:03.984Z,24.10
2018-02-09T14:03:33.118Z,23.70
2018-02-09T14:06:00.663Z,20.90
2018-02-09T14:08:28.132Z,21.35
2018-02-09T14:10:55.624Z,22.53
2018-02-09T14:13:23.096Z,22.27
2018-02-09T14:15:52.264Z,21.87
2018-02-09T14:18:22.165Z,23.13
2018-02-09T14:20:50.396Z,21.67
2018-02-09T14:23:18.632Z,21.50
2018-02-09T14:25:46.805Z,24.25
2018-02-09T14:28:14.252Z,23.50
2018-02-09T14:30:41.784Z,23.13
2018-02-09T14:33:09.241Z,26.97
2018-02-09T14:35:36.732Z,21.58
2018-02-09T14:38:04.185Z,21.67
2018-02-09T14:40:31.666Z,25.13
2018-02-09T14:43:02.679Z,24.50
2018-02-09T14:45:31.545Z,22.37
2018-02-09T14:47:58.997Z,23.57
2018-02-09T14:50:26.485Z,23.42
2018-02-09T14:52:53.940Z,24.33
2018-02-09T14:55:21.404Z,25.07
2018-02-09T14:57:48.872Z,21.87
2018-02-09T15:00:16.390Z,23.33
2018-02-09T15:02:44.665Z,25.85
2018-02-09T15:05:12.140Z,22.23
2018-02-09T15:07:39.596Z,22.60
2018-02-09T15:10:07.080Z,24.17
2018-02-09T15:12:34.552Z,22.15
2018-02-09T15:15:02.052Z,22.73
2018-02-09T15:17:29.528Z,23.57
2018-02-09T15:19:57.227Z,24.40
2018-02-09T15:22:24.769Z,23.50
2018-02-09T15:24:52.649Z,22.10
2018-02-09T15:27:21.074Z,24.40
2018-02-09T15:29:48.536Z,22.93
2018-02-09T15:32:16.029Z,25.08
2018-02-09T15:34:43.476Z,23.92
2018-02-09T15:37:13.076Z,22.67
2018-02-09T15:39:40.556Z,24.50
2018-02-09T15:42:08.030Z,23.80
2018-02-09T15:44:36.405Z,22.27
2018-02-09T15:47:04.160Z,25.43
2018-02-09T15:49:31.600Z,23.48
2018-02-09T15:51:59.079Z,21.23
2018-02-09T15:54:26.524Z,23.07
2018-02-09T15:56:54.014Z,24.77
2018-02-09T15:59:21.513Z,23.90
2018-02-09T16:01:49.932Z,25.47
2018-02-09T16:04:17.364Z,20.80
2018-02-09T16:06:44.852Z,24.13
2018-02-09T16:09:12.440Z,23.47
2018-02-09T16:11:39.920Z,21.80
2018-02-09T16:14:07.368Z,23.65
2018-02-09T16:16:34.852Z,24.73
2018-02-09T16:19:02.329Z,22.67
2018-02-09T16:21:30.009Z,25.43
2018-02-09T16:23:58.286Z,24.17
2018-02-09T16:26:26.039Z,24.47
2018-02-09T16:28:54.296Z,22.55
2018-02-09T16:31:22.685Z,24.20
2018-02-09T16:33:50.156Z,25.03
2018-02-09T16:36:17.600Z,24.13
2018-02-09T16:38:45.057Z,25.77
2018-02-09T16:41:13.309Z,24.20
2018-02-09T16:43:44.158Z,20.83
2018-02-09T16:46:11.946Z,24.30
2018-02-09T16:48:39.484Z,24.70
2018-02-09T16:51:06.945Z,26.03
2018-02-09T16:53:34.525Z,26.57
2018-02-09T16:56:02.798Z,24.97
2018-02-09T16:58:30.301Z,25.67
2018-02-09T17:00:57.744Z,25.03
2018-02-09T17:03:26.656Z,24.15
2018-02-09T17:05:54.224Z,23.13
2018-02-09T17:08:21.673Z,27.70
2018-02-09T17:10:49.164Z,25.13
2018-02-09T17:13:16.610Z,25.47
2018-02-09T17:15:48.859Z,24.95
2018-02-09T17:18:16.328Z,27.27
2018-02-09T17:20:44.084Z,25.33
2018-02-09T17:23:11.555Z,26.20
2018-02-09T17:25:40.529Z,26.23
2018-02-09T17:28:08.022Z,26.87
2018-02-09T17:30:35.702Z,27.37
2018-02-09T17:33:03.142Z,29.20
2018-02-09T17:35:31.612Z,26.57
2018-02-09T17:37:59.312Z,29.23
2018-02-09T17:40:26.779Z,27.60
2018-02-09T17:42:54.217Z,28.30
2018-02-09T17:45:21.724Z,25.95
2018-02-09T17:47:49.180Z,28.90
2018-02-09T17:50:16.678Z,28.50
2018-02-09T17:52:44.188Z,26.80
2018-02-09T17:55:11.649Z,27.10
2018-02-09T17:57:39.124Z,27.10
2018-02-09T18:00:07.264Z,27.58
2018-02-09T18:02:34.717Z,26.50
2018-02-09T18:05:02.198Z,26.23
2018-02-09T18:07:29.652Z,25.00
2018-02-09T18:09:57.240Z,29.20
2018-02-09T18:12:24.704Z,25.95
2018-02-09T18:14:52.155Z,25.60
2018-02-09T18:17:19.612Z,25.23
2018-02-09T18:19:47.065Z,25.52
2018-02-09T18:22:16.061Z,26.08
2018-02-09T18:24:43.520Z,26.27
2018-02-09T18:27:11.095Z,26.37
2018-02-09T18:29:40.301Z,26.50
2018-02-09T18:32:07.768Z,28.23
2018-02-09T18:34:36.034Z,24.83
2018-02-09T18:37:03.468Z,28.20
2018-02-09T18:39:30.948Z,25.23
2018-02-09T18:41:59.320Z,25.98
2018-02-09T18:44:26.803Z,27.65
2018-02-09T18:46:54.300Z,23.87
2018-02-09T18:49:21.752Z,25.77
2018-02-09T18:51:49.532Z,26.98
2018-02-09T18:54:17.000Z,26.10
2018-02-09T18:56:44.483Z,27.47
2018-02-09T18:59:11.953Z,26.40
2018-02-09T19:01:39.420Z,24.17
2018-02-09T19:04:06.908Z,25.80
2018-02-09T19:06:34.437Z,26.87
2018-02-09T19:09:03.260Z,25.83
2018-02-09T19:11:30.741Z,28.00
2018-02-09T19:13:58.243Z,26.35
2018-02-09T19:16:29.024Z,29.80
2018-02-09T19:18:57.199Z,24.92
2018-02-09T19:21:24.653Z,26.70
2018-02-09T19:23:52.172Z,28.00
2018-02-09T19:26:19.604Z,25.80
2018-02-09T19:28:47.159Z,26.73
2018-02-09T19:31:14.596Z,26.30
2018-02-09T19:33:42.261Z,27.50
2018-02-09T19:36:11.643Z,28.20
2018-02-09T19:38:39.133Z,24.30
2018-02-09T19:41:06.607Z,29.00
2018-02-09T19:43:34.070Z,27.03
2018-02-09T19:46:01.598Z,25.07
2018-02-09T19:48:29.082Z,27.15
2018-02-09T19:50:56.574Z,26.80
2018-02-09T19:53:24.713Z,25.85
2018-02-09T19:55:52.215Z,28.13
2018-02-09T19:58:19.729Z,27.30
2018-02-09T20:00:47.223Z,26.83
2018-02-09T20:03:14.737Z,27.05
2018-02-09T20:05:42.267Z,29.50
2018-02-09T20:08:09.745Z,27.80
2018-02-09T20:10:37.324Z,29.00
2018-02-09T20:13:04.766Z,29.43
2018-02-09T20:15:32.960Z,30.75
2018-02-09T20:18:00.473Z,27.30
2018-02-09T20:20:27.924Z,24.27
2018-02-09T20:22:55.387Z,28.73
2018-02-09T20:25:23.640Z,28.75
2018-02-09T20:27:51.330Z,30.85
2018-02-09T20:30:18.839Z,38.10
2018-02-09T20:32:50.975Z,29.02
2018-02-09T20:35:18.448Z,28.27
2018-02-09T20:37:45.975Z,29.50
2018-02-09T20:40:13.456Z,29.25
2018-02-09T20:42:41.824Z,26.15
2018-02-09T20:45:10.071Z,27.33
2018-02-09T20:47:37.567Z,31.00
2018-02-09T20:50:05.048Z,26.67
2018-02-09T20:52:33.444Z,28.43
2018-02-09T20:55:00.934Z,28.87
2018-02-09T20:57:28.432Z,29.23
2018-02-09T20:59:55.919Z,31.50
2018-02-09T21:02:23.431Z,27.73
2018-02-09T21:04:50.936Z,31.00
2018-02-09T21:07:18.393Z,29.30
2018-02-09T21:09:45.936Z,32.20
2018-02-09T21:12:14.892Z,29.03
2018-02-09T21:14:42.425Z,28.77
2018-02-09T21:17:10.746Z,29.58
2018-02-09T21:19:38.260Z,30.77
2018-02-09T21:22:05.731Z,29.20
2018-02-09T21:24:33.792Z,30.62
2018-02-09T21:27:02.027Z,29.53
2018-02-09T21:29:29.567Z,29.27
2018-02-09T21:31:57.294Z,28.10
2018-02-09T21:34:24.809Z,29.12
2018-02-09T21:36:53.120Z,29.20
2018-02-09T21:39:20.616Z,29.73
2018-02-09T21:41:48.197Z,29.07
2018-02-09T21:44:15.685Z,28.57
2018-02-09T21:46:43.204Z,27.33
2018-02-09T21:49:14.195Z,27.90
2018-02-09T21:51:42.411Z,28.45
2018-02-09T21:54:09.909Z,28.50
2018-02-09T21:56:37.404Z,29.20
2018-02-09T21:59:04.898Z,28.00
2018-02-09T22:01:32.393Z,29.42
2018-02-09T22:03:59.836Z,29.27
2018-02-09T22:06:27.334Z,28.02
2018-02-09T22:08:56.524Z,28.03
2018-02-09T22:11:23.993Z,32.57
2018-02-09T22:13:51.636Z,28.27
2018-02-09T22:16:19.178Z,27.33
2018-02-09T22:18:46.658Z,29.30
2018-02-09T22:21:14.410Z,29.27
2018-02-09T22:23:41.856Z,28.25
2018-02-09T22:26:09.989Z,30.47
2018-02-09T22:28:37.490Z,28.98
2018-02-09T22:31:05.048Z,30.00
2018-02-09T22:33:32.714Z,27.47
2018-02-09T22:36:04.523Z,27.10
2018-02-09T22:38:32.035Z,27.07
2018-02-09T22:40:59.766Z,29.08
2018-02-09T22:43:27.235Z,26.97
2018-02-09T22:45:54.765Z,28.90
2018-02-09T22:48:22.221Z,27.40
2018-02-09T22:50:49.769Z,27.33
2018-02-09T22:53:17.299Z,27.10
2018-02-09T22:55:45.607Z,28.60
2018-02-09T22:58:14.252Z,26.75
2018-02-09T23:00:41.753Z,28.27
2018-02-09T23:03:09.258Z,26.60
2018-02-09T23:05:36.734Z,26.70
2018-02-09T23:08:04.984Z,28.15
2018-02-09T23:10:33.437Z,26.60
2018-02-09T23:13:00.932Z,26.00
2018-02-09T23:15:28.385Z,26.00
2018-02-09T23:17:55.870Z,29.10
2018-02-09T23:20:27.571Z,25.80
2018-02-09T23:22:55.030Z,25.10
2018-02-09T23:25:22.528Z,26.67
2018-02-09T23:27:50.772Z,25.40
2018-02-09T23:30:19.045Z,26.20
2018-02-09T23:32:46.694Z,25.83
2018-02-09T23:35:14.185Z,26.33
2018-02-09T23:37:45.548Z,31.13
2018-02-09T23:40:13.047Z,24.30
2018-02-09T23:42:40.790Z,26.83
2018-02-09T23:45:08.270Z,25.80
2018-02-09T23:47:36.912Z,25.83
2018-02-09T23:50:04.410Z,25.57
2018-02-09T23:52:35.809Z,24.00
2018-02-09T23:55:03.471Z,24.30
2018-02-09T23:57:31.948Z,23.93
2018-02-09T23:59:59.408Z,26.60
